Atlantic City Int. Airport (ACY)

 

Airport Diagram
Current Weather/Forecast (VFR Conditions)
METAR KACY 081754Z 31010G23KT 10SM FEW050 23/10 A2954 RMK AO2 PK WND 32026/1707 SLP003 T02330100 10239 20139 55000
TAF KACY 081730Z 0818/0918 31011G18KT P6SM FEW050 FM082100 06008KT P6SM FEW060 FM090000 10005KT P6SM FEW250 TEMPO 0905/0907 3SM BR SCT003 FM090700 VRB03KT 1/2SM FG BKN003 FM091400 19009KT 6SM BR BKN015 FM091700 25018G36KT 4SM SHRA OVC015

All Charts
General
Chart Name Download
AIRPORT DIAGRAM
TAKEOFF MINIMUMS
ALTERNATE MINIMUMS
RADAR MINIMUMS
HOT SPOT
LAHSO

Departures
Chart Name Download
ATLANTIC CITY TWO

Approaches
Chart Name Download
HI-ILS OR LOC RWY 13
ILS OR LOC RWY 13
ILS OR LOC/DME RWY 31
RNAV (RNP) Z RWY 13
RNAV (RNP) Z RWY 31
RNAV (GPS) RWY 04
RNAV (GPS) RWY 22
RNAV (GPS) Y RWY 13
RNAV (GPS) Y RWY 31
VOR/DME RWY 22
HI-VOR/DME OR TACAN RWY 31
VOR RWY 04
VOR RWY 13
VOR RWY 31
COPTER ILS OR LOC/DME RWY 13


Inbound Traffic (Arrivals)

No inbound traffic.


Outbound Traffic (Departures)

No outbound traffic.